Time;durP1;ratioP1;P1;durP2;ratioP2;P2;SDS_P1;SDS_P2;PMS_P1;PMS_P2;Temp;Humidity;BMP_temperature;BMP_pressure;BME280_temperature;BME280_humidity;BME280_pressure;Samples;Min_cycle;Max_cycle;Signal;HPM_P1;HPM_P2
2022/07/20 00:02:22;;;;;;;7.75;4.82;;;;;;;18.54;43.34;95301.28;5092998;28;20051;-86
2022/07/20 00:04:49;;;;;;;10.40;5.63;;;;;;;19.96;43.44;95549.97;5091970;28;20032;-86
2022/07/20 00:07:15;;;;;;;11.32;4.75;;;;;;;20.66;43.05;95629.31;5091582;28;20032;-86
2022/07/20 00:12:25;;;;;;;18.08;5.75;;;;;;;21.21;43.46;95735.44;5093439;28;20093;-87
2022/07/20 00:14:50;;;;;;;9.88;4.90;;;;;;;21.77;43.17;95815.84;5091724;28;20039;-86
2022/07/20 00:17:16;;;;;;;13.52;4.55;;;;;;;20.79;43.20;95660.63;5093024;28;20040;-85
2022/07/20 00:19:42;;;;;;;16.38;5.13;;;;;;;21.69;43.26;95795.09;5091305;28;20482;-85
2022/07/20 00:22:07;;;;;;;8.88;4.65;;;;;;;20.90;43.34;95690.69;5090896;28;20043;-86
2022/07/20 00:24:33;;;;;;;12.43;5.13;;;;;;;21.06;43.58;95720.56;5091218;28;20101;-85
2022/07/20 00:26:58;;;;;;;16.58;4.38;;;;;;;21.58;44.00;95814.72;5091332;28;20032;-85
2022/07/20 00:29:24;;;;;;;9.40;4.13;;;;;;;21.29;43.99;95777.72;5091113;28;20044;-85
2022/07/20 00:31:49;;;;;;;13.48;4.25;;;;;;;21.26;43.82;95767.59;5091382;28;20085;-85
2022/07/20 00:34:15;;;;;;;9.63;3.80;;;;;;;21.08;44.38;95753.38;5090785;28;20456;-86
2022/07/20 00:36:40;;;;;;;11.32;4.05;;;;;;;21.27;44.78;95799.66;5090447;28;20074;-86
2022/07/20 00:39:06;;;;;;;8.40;3.63;;;;;;;19.85;43.90;95556.78;5108195;28;20597;-86
2022/07/20 00:41:31;;;;;;;7.80;3.53;;;;;;;21.13;44.18;95793.69;5091261;28;20036;-86
2022/07/20 00:44:02;;;;;;;9.40;3.17;;;;;;;21.58;43.89;95844.41;5090841;28;20238;-86
2022/07/20 00:46:29;;;;;;;6.10;2.92;;;;;;;21.04;43.15;95739.00;5091018;28;20032;-85
2022/07/20 00:48:55;;;;;;;5.40;2.47;;;;;;;21.66;42.67;95838.94;5090783;28;20472;-86
2022/07/20 00:51:21;;;;;;;7.60;2.60;;;;;;;21.35;43.27;95800.72;5090760;28;20036;-85
2022/07/20 00:53:47;;;;;;;4.75;2.58;;;;;;;20.65;43.12;95694.31;5090774;28;20052;-86
2022/07/20 00:56:16;;;;;;;4.88;2.63;;;;;;;21.34;43.56;95820.72;5108012;28;20055;-86
2022/07/20 00:58:41;;;;;;;5.53;2.33;;;;;;;21.01;42.93;95745.03;5091322;28;20126;-86
2022/07/20 01:01:07;;;;;;;6.68;2.30;;;;;;;21.02;42.66;95735.81;5090996;28;20294;-85
2022/07/20 01:03:35;;;;;;;5.07;2.42;;;;;;;21.03;42.64;95732.81;5091247;28;20028;-86
2022/07/20 01:06:01;;;;;;;5.63;2.63;;;;;;;21.08;42.46;95727.22;5090936;28;20142;-85
2022/07/20 01:08:28;;;;;;;2.72;2.05;;;;;;;19.66;42.30;95537.56;5090255;28;20413;-85
2022/07/20 01:10:55;;;;;;;4.75;2.50;;;;;;;21.58;42.88;95834.41;5091119;28;20043;-85
2022/07/20 01:13:20;;;;;;;5.35;2.28;;;;;;;21.48;42.79;95819.38;5091266;28;20056;-86
2022/07/20 01:15:46;;;;;;;6.32;2.63;;;;;;;21.65;43.06;95833.88;5091277;28;20412;-86
2022/07/20 01:18:11;;;;;;;7.22;2.67;;;;;;;21.16;42.96;95803.81;5091297;28;20036;-87
2022/07/20 01:20:43;;;;;;;8.80;2.45;;;;;;;19.96;43.00;95579.56;5091287;28;20036;-86
2022/07/20 01:23:09;;;;;;;5.82;2.53;;;;;;;19.92;42.96;95577.81;5091470;28;20105;-86
2022/07/20 01:25:35;;;;;;;4.35;2.60;;;;;;;21.61;42.61;95822.13;5090825;28;20174;-86
2022/07/20 01:28:05;;;;;;;7.72;2.70;;;;;;;19.79;42.59;95568.06;5092726;28;20043;-86
2022/07/20 01:30:31;;;;;;;6.47;3.03;;;;;;;20.80;42.64;95699.16;5091427;28;20036;-86
2022/07/20 01:32:56;;;;;;;5.25;2.53;;;;;;;20.95;42.59;95752.53;5092164;28;20062;-86
2022/07/20 01:35:22;;;;;;;7.40;3.15;;;;;;;21.28;42.78;95785.06;5092940;28;20326;-86
2022/07/20 01:37:47;;;;;;;12.82;3.80;;;;;;;21.59;42.87;95827.09;5095003;28;20031;-86
2022/07/20 01:40:12;;;;;;;9.73;3.83;;;;;;;21.39;42.70;95812.44;5111557;28;20032;-86
2022/07/20 01:42:38;;;;;;;7.53;3.33;;;;;;;21.07;42.95;95763.38;5094665;28;20034;-86
2022/07/20 01:45:04;;;;;;;6.97;3.17;;;;;;;21.37;43.23;95826.25;5094995;28;20038;-86
2022/07/20 01:47:29;;;;;;;9.02;2.95;;;;;;;19.62;43.36;95576.97;5095045;28;20036;-86
2022/07/20 01:49:55;;;;;;;6.10;3.22;;;;;;;21.15;43.46;95808.41;5094678;28;20040;-86
2022/07/20 01:52:20;;;;;;;6.93;3.00;;;;;;;21.19;43.43;95811.28;5094631;28;20071;-86
2022/07/20 01:54:46;;;;;;;6.55;3.35;;;;;;;21.34;43.42;95840.41;5094124;28;20035;-86
2022/07/20 01:57:11;;;;;;;11.85;3.33;;;;;;;21.17;42.56;95791.94;5094248;28;20028;-87
2022/07/20 01:59:37;;;;;;;9.30;3.08;;;;;;;21.10;42.57;95789.72;5095573;28;20051;-86
2022/07/20 02:02:02;;;;;;;5.75;2.80;;;;;;;21.08;42.71;95807.31;5094030;28;20421;-87
2022/07/20 02:04:28;;;;;;;11.77;3.47;;;;;;;20.63;42.59;95742.34;5111015;28;20133;-87
2022/07/20 02:06:53;;;;;;;6.18;3.88;;;;;;;20.07;42.36;95655.38;5094213;28;20028;-87
2022/07/20 02:09:18;;;;;;;7.72;3.15;;;;;;;21.20;42.34;95814.78;5093868;28;20129;-86
2022/07/20 02:11:44;;;;;;;6.82;3.67;;;;;;;21.48;41.95;95846.34;5093582;28;20097;-86
2022/07/20 02:14:09;;;;;;;9.50;3.50;;;;;;;21.07;41.74;95797.66;5092717;28;20028;-87
2022/07/20 02:16:35;;;;;;;7.50;3.78;;;;;;;21.17;42.37;95824.28;5093893;28;20113;-88
2022/07/20 02:19:00;;;;;;;11.95;3.92;;;;;;;20.83;42.43;95771.28;5094027;28;20551;-88
2022/07/20 02:21:29;;;;;;;8.52;3.80;;;;;;;20.76;42.15;95744.81;5093773;28;20036;-87
2022/07/20 02:23:55;;;;;;;8.10;3.50;;;;;;;21.35;42.56;95846.59;5095087;28;20024;-87
2022/07/20 02:26:20;;;;;;;12.20;3.83;;;;;;;21.05;42.67;95786.41;5094777;28;20064;-87
2022/07/20 02:28:46;;;;;;;11.23;3.45;;;;;;;21.33;43.20;95848.81;5093749;28;20364;-87
2022/07/20 02:31:11;;;;;;;8.23;3.47;;;;;;;21.29;43.32;95840.56;5095303;28;20036;-86
2022/07/20 02:33:37;;;;;;;12.20;3.65;;;;;;;21.10;43.43;95816.69;5093484;28;20123;-86
2022/07/20 02:36:03;;;;;;;7.45;3.55;;;;;;;21.38;43.43;95837.81;5092983;28;20140;-86
2022/07/20 02:38:29;;;;;;;7.82;4.10;;;;;;;20.50;43.40;95709.13;5094430;28;20559;-86
2022/07/20 02:40:54;;;;;;;17.77;3.90;;;;;;;21.06;43.95;95841.91;5110346;28;20333;-85
2022/07/20 02:43:20;;;;;;;8.70;3.85;;;;;;;20.13;44.31;95726.00;5093651;28;20611;-85
2022/07/20 02:45:46;;;;;;;8.95;4.18;;;;;;;20.40;44.48;95779.50;5092914;28;20473;-86
2022/07/20 02:48:11;;;;;;;13.23;4.30;;;;;;;20.35;44.70;95796.66;5092883;28;20034;-86
2022/07/20 02:50:41;;;;;;;12.30;4.38;;;;;;;20.25;44.84;95801.53;5093717;28;20059;-86
2022/07/20 02:53:08;;;;;;;10.93;4.10;;;;;;;20.37;45.22;95863.66;5093391;28;20438;-86
2022/07/20 02:55:34;;;;;;;14.43;3.92;;;;;;;20.17;45.19;95826.56;5094921;28;20508;-87
2022/07/20 02:57:59;;;;;;;7.97;3.55;;;;;;;19.71;44.68;95725.75;5092746;28;20067;-86
2022/07/20 03:00:25;;;;;;;9.45;3.60;;;;;;;20.55;44.52;95846.34;5093282;28;20144;-86
2022/07/20 03:02:51;;;;;;;17.88;3.88;;;;;;;19.81;45.36;95732.72;5092638;28;20489;-85
2022/07/20 03:05:18;;;;;;;13.85;4.28;;;;;;;20.72;44.86;95870.59;5092891;28;20039;-85
2022/07/20 03:07:43;;;;;;;9.77;3.95;;;;;;;20.46;44.82;95824.03;5093288;28;20028;-85
2022/07/20 03:10:10;;;;;;;11.43;4.20;;;;;;;20.28;45.23;95822.47;5092838;28;20043;-86
2022/07/20 03:12:36;;;;;;;11.27;3.88;;;;;;;20.65;44.37;95861.41;5093405;28;20084;-86
2022/07/20 03:15:02;;;;;;;8.95;3.85;;;;;;;19.46;44.76;95683.47;5093858;28;20040;-86
2022/07/20 03:17:28;;;;;;;8.10;3.80;;;;;;;20.20;44.65;95791.72;5092868;28;20047;-86
2022/07/20 03:19:53;;;;;;;11.40;3.67;;;;;;;20.07;44.50;95786.50;5092760;28;20039;-86
2022/07/20 03:22:19;;;;;;;12.13;4.07;;;;;;;20.08;44.38;95801.56;5108668;28;20028;-86
2022/07/20 03:24:44;;;;;;;11.32;3.70;;;;;;;19.44;45.49;95791.41;5109759;28;20036;-86
2022/07/20 03:27:10;;;;;;;13.40;3.80;;;;;;;19.72;45.81;95850.31;5092746;28;20035;-86
2022/07/20 03:29:35;;;;;;;10.10;3.47;;;;;;;19.28;45.88;95782.19;5093651;28;20122;-87
2022/07/20 03:32:01;;;;;;;14.98;3.58;;;;;;;19.23;45.85;95793.06;5092334;28;20044;-86
2022/07/20 03:34:27;;;;;;;18.60;4.22;;;;;;;19.59;45.76;95815.19;5092415;28;20059;-86
2022/07/20 03:36:53;;;;;;;17.23;3.78;;;;;;;20.08;45.96;95877.75;5092404;28;20499;-86
2022/07/20 03:39:18;;;;;;;14.63;3.92;;;;;;;19.70;45.84;95815.66;5092297;28;20034;-86
2022/07/20 03:41:43;;;;;;;10.13;3.85;;;;;;;19.53;45.29;95786.06;5091997;28;20036;-86
2022/07/20 03:44:10;;;;;;;6.60;3.40;;;;;;;20.26;45.24;95887.41;5092497;28;20032;-85
2022/07/20 03:46:35;;;;;;;11.00;3.63;;;;;;;20.11;45.39;95925.59;5092872;28;20093;-86
2022/07/20 03:49:01;;;;;;;10.65;4.32;;;;;;;18.46;45.50;95648.53;5092641;28;20036;-85
2022/07/20 03:51:26;;;;;;;10.90;3.60;;;;;;;20.19;45.59;95881.72;5093652;28;20119;-86
2022/07/20 03:53:52;;;;;;;10.43;4.43;;;;;;;20.08;44.53;95841.94;5091940;28;20102;-86
2022/07/20 03:56:17;;;;;;;13.07;4.00;;;;;;;20.20;44.89;95874.44;5091630;28;20044;-86
2022/07/20 03:58:43;;;;;;;12.75;3.92;;;;;;;20.06;44.60;95889.94;5091540;28;20035;-86
2022/07/20 04:01:09;;;;;;;11.55;3.58;;;;;;;20.35;44.71;95906.28;5092205;28;20189;-85
2022/07/20 04:03:35;;;;;;;13.73;4.32;;;;;;;18.36;44.81;95579.00;5094444;28;20115;-86
2022/07/20 04:06:01;;;;;;;9.05;4.07;;;;;;;20.39;45.12;95896.47;5092430;28;20089;-87
2022/07/20 04:08:27;;;;;;;11.05;4.20;;;;;;;18.36;44.27;95582.47;5108728;28;20460;-85
2022/07/20 04:10:52;;;;;;;9.40;4.15;;;;;;;18.54;45.05;95620.88;5091795;28;20422;-86
2022/07/20 04:13:18;;;;;;;11.05;3.58;;;;;;;19.94;45.24;95869.03;5091852;28;20067;-85
2022/07/20 04:15:43;;;;;;;14.35;3.80;;;;;;;20.16;44.72;95865.38;5091735;28;20044;-86
2022/07/20 04:18:09;;;;;;;10.50;4.18;;;;;;;19.48;44.85;95772.75;5092074;28;20032;-86
2022/07/20 04:20:34;;;;;;;11.07;3.75;;;;;;;20.03;44.92;95867.94;5092853;28;20040;-85
2022/07/20 04:23:00;;;;;;;11.48;4.22;;;;;;;19.48;44.17;95761.97;5108955;28;20478;-86
2022/07/20 04:25:25;;;;;;;10.20;4.43;;;;;;;20.40;44.14;95903.44;5108522;28;20036;-86
2022/07/20 04:27:51;;;;;;;16.63;4.38;;;;;;;19.94;45.02;95850.19;5092650;28;20435;-86
2022/07/20 04:30:16;;;;;;;9.88;4.25;;;;;;;19.72;44.22;95794.59;5091067;28;20482;-86
2022/07/20 04:32:43;;;;;;;10.57;4.38;;;;;;;20.42;44.28;95910.09;5091768;28;20028;-86
2022/07/20 04:35:09;;;;;;;15.88;4.63;;;;;;;19.83;44.51;95828.19;5091663;28;20036;-86
2022/07/20 04:37:36;;;;;;;15.82;4.05;;;;;;;20.38;44.63;95914.53;5091933;28;20477;-88
2022/07/20 04:40:03;;;;;;;10.35;4.00;;;;;;;20.48;44.19;95918.00;5092068;28;20074;-87
2022/07/20 04:42:28;;;;;;;12.85;4.53;;;;;;;20.00;43.95;95825.47;5091755;28;20517;-87
2022/07/20 04:44:53;;;;;;;15.93;4.70;;;;;;;20.31;44.15;95883.75;5092138;28;20172;-87
2022/07/20 04:47:19;;;;;;;11.73;4.82;;;;;;;20.44;44.11;95899.00;5091779;28;20040;-87
2022/07/20 04:49:44;;;;;;;12.00;4.50;;;;;;;20.44;43.75;95882.06;5092282;28;20039;-86
2022/07/20 04:52:10;;;;;;;10.02;4.30;;;;;;;19.91;44.23;95832.75;5091307;28;20138;-87
2022/07/20 04:54:35;;;;;;;12.02;4.20;;;;;;;20.36;44.02;95862.09;5090085;28;20036;-86
2022/07/20 04:57:01;;;;;;;13.05;4.40;;;;;;;20.49;44.26;95924.97;5084421;28;20123;-86
2022/07/20 04:59:27;;;;;;;12.93;4.82;;;;;;;20.18;44.52;95898.97;5071530;28;20123;-86
2022/07/20 05:01:53;;;;;;;11.77;5.07;;;;;;;20.14;44.54;95863.00;5072151;28;20430;-86
2022/07/20 05:04:18;;;;;;;15.68;4.50;;;;;;;20.35;44.89;95893.63;5067689;28;20040;-86
2022/07/20 05:06:44;;;;;;;14.20;5.13;;;;;;;20.13;44.81;95847.19;5078342;28;20569;-86
2022/07/20 05:09:10;;;;;;;18.10;5.45;;;;;;;20.21;44.70;95862.56;5102878;28;20036;-86
2022/07/20 05:11:37;;;;;;;18.15;5.43;;;;;;;20.60;44.11;95901.97;5080698;28;20038;-86
2022/07/20 05:14:03;;;;;;;12.25;4.50;;;;;;;18.32;44.40;95583.41;5078398;28;20048;-87
2022/07/20 05:16:28;;;;;;;11.80;4.82;;;;;;;20.53;44.11;95878.22;5075618;28;20093;-86
2022/07/20 05:18:54;;;;;;;13.73;5.10;;;;;;;20.59;43.97;95871.56;5075305;28;20698;-86
2022/07/20 05:21:19;;;;;;;23.50;5.32;;;;;;;19.81;44.24;95784.63;5075532;28;20557;-87
2022/07/20 05:23:45;;;;;;;15.75;4.32;;;;;;;20.76;43.59;95917.34;5075071;28;20071;-86
2022/07/20 05:26:10;;;;;;;12.30;4.63;;;;;;;19.76;44.04;95765.94;5074659;28;20032;-87
2022/07/20 05:28:38;;;;;;;8.85;3.83;;;;;;;20.74;43.52;95911.50;5076685;28;20109;-86
2022/07/20 05:31:04;;;;;;;8.73;4.10;;;;;;;20.29;43.80;95850.97;5075942;28;20501;-87
2022/07/20 05:33:29;;;;;;;8.63;4.55;;;;;;;20.46;43.59;95834.00;5091987;28;20040;-87
2022/07/20 05:35:55;;;;;;;17.10;4.75;;;;;;;20.42;43.53;95836.56;5075081;28;20093;-86
2022/07/20 05:38:20;;;;;;;8.20;4.43;;;;;;;21.07;43.61;95927.88;5074957;28;20036;-86
2022/07/20 05:40:48;;;;;;;10.07;4.55;;;;;;;21.10;43.14;95935.34;5074690;28;20044;-87
2022/07/20 05:43:13;;;;;;;14.48;4.20;;;;;;;20.37;42.87;95799.00;5074835;28;20064;-86
2022/07/20 05:45:39;;;;;;;11.93;4.68;;;;;;;20.69;42.77;95828.09;5076667;28;20174;-88
2022/07/20 05:48:06;;;;;;;18.33;4.53;;;;;;;20.73;43.11;95836.34;5076707;28;20039;-87
2022/07/20 05:50:32;;;;;;;15.32;5.05;;;;;;;20.42;43.01;95812.31;5075512;28;20032;-87
2022/07/20 05:52:57;;;;;;;10.55;4.90;;;;;;;19.24;43.12;95598.38;5075361;28;20037;-87
2022/07/20 05:55:23;;;;;;;14.43;4.97;;;;;;;21.42;42.75;95934.00;5075357;28;20081;-87
2022/07/20 05:57:48;;;;;;;10.35;4.88;;;;;;;21.16;42.67;95874.75;5086915;28;20039;-87
2022/07/20 06:00:14;;;;;;;11.50;4.40;;;;;;;21.33;42.73;95924.34;5072820;28;20078;-87
2022/07/20 06:02:40;;;;;;;21.38;5.25;;;;;;;20.12;42.53;95727.13;5068125;28;20021;-87
2022/07/20 06:05:06;;;;;;;14.23;4.97;;;;;;;20.95;42.62;95844.19;5068264;28;20440;-87
2022/07/20 06:07:31;;;;;;;10.65;4.70;;;;;;;20.63;42.70;95783.56;5066386;28;20039;-86
2022/07/20 06:09:56;;;;;;;8.57;4.45;;;;;;;21.33;42.87;95916.25;5070140;28;20043;-87
2022/07/20 06:12:22;;;;;;;12.85;4.47;;;;;;;21.20;43.11;95860.63;5074135;28;20109;-87
2022/07/20 06:14:47;;;;;;;12.30;4.32;;;;;;;20.79;43.12;95841.22;5073917;28;20040;-86
2022/07/20 06:17:16;;;;;;;10.85;4.43;;;;;;;21.05;42.42;95845.75;5069218;28;20063;-87
2022/07/20 06:19:41;;;;;;;17.00;5.13;;;;;;;21.54;42.64;95917.91;5074036;28;20498;-87
2022/07/20 06:22:07;;;;;;;15.95;4.80;;;;;;;21.33;42.49;95886.59;5088544;28;20036;-87
2022/07/20 06:24:33;;;;;;;12.50;4.70;;;;;;;21.41;42.18;95897.34;5073458;28;20090;-86
2022/07/20 06:26:58;;;;;;;15.73;4.47;;;;;;;20.08;42.41;95683.09;5074973;28;20050;-86
2022/07/20 06:29:24;;;;;;;12.80;4.50;;;;;;;20.10;42.18;95668.19;5075131;28;20033;-87
2022/07/20 06:31:50;;;;;;;18.75;5.25;;;;;;;21.13;42.67;95842.22;5074025;28;20433;-86
2022/07/20 06:34:15;;;;;;;16.80;4.65;;;;;;;21.06;42.71;95833.81;5075605;28;20340;-86
2022/07/20 06:36:44;;;;;;;24.48;4.90;;;;;;;19.89;42.67;95676.19;5074021;28;20047;-87
2022/07/20 06:39:09;;;;;;;11.27;4.80;;;;;;;21.40;42.08;95857.97;5068351;28;20036;-87
2022/07/20 06:41:34;;;;;;;12.32;5.55;;;;;;;21.71;42.16;95894.66;5068955;28;20036;-87
2022/07/20 06:44:00;;;;;;;15.65;5.45;;;;;;;21.50;41.79;95836.03;5072565;28;20040;-87
2022/07/20 06:46:25;;;;;;;13.05;4.65;;;;;;;21.43;42.17;95822.25;5071652;28;20140;-87
2022/07/20 06:48:51;;;;;;;15.30;4.97;;;;;;;22.05;42.16;95909.88;5075292;28;20040;-87
2022/07/20 06:51:16;;;;;;;15.13;4.55;;;;;;;21.67;42.33;95847.81;5066404;28;20047;-85
2022/07/20 06:53:42;;;;;;;13.15;4.43;;;;;;;22.00;41.97;95907.34;5058994;28;20053;-85
2022/07/20 06:56:07;;;;;;;12.18;4.32;;;;;;;20.69;41.89;95703.31;5084813;28;20094;-87
2022/07/20 06:58:32;;;;;;;22.75;5.10;;;;;;;21.96;41.73;95885.59;5071179;28;20115;-86
2022/07/20 07:00:58;;;;;;;12.52;4.47;;;;;;;22.25;41.97;95907.16;5070712;28;20032;-87
2022/07/20 07:03:23;;;;;;;13.68;4.32;;;;;;;22.30;41.50;95893.44;5086383;28;20036;-86
2022/07/20 07:05:49;;;;;;;14.23;4.50;;;;;;;22.14;41.92;95857.34;5070503;28;20033;-86
2022/07/20 07:08:14;;;;;;;11.32;4.07;;;;;;;21.83;42.00;95821.81;5066746;28;20048;-87
2022/07/20 07:10:40;;;;;;;19.35;4.50;;;;;;;22.46;41.50;95914.47;5073091;28;20040;-86
2022/07/20 07:13:05;;;;;;;14.45;4.55;;;;;;;22.38;41.19;95874.78;5073376;28;20035;-86
2022/07/20 07:15:31;;;;;;;12.05;4.43;;;;;;;22.20;40.74;95833.66;5076359;28;20043;-86
2022/07/20 07:17:56;;;;;;;8.68;4.05;;;;;;;22.48;40.51;95855.47;5073448;28;20047;-86
2022/07/20 07:20:22;;;;;;;11.80;4.00;;;;;;;20.19;40.77;95510.09;5077934;28;20020;-86
2022/07/20 07:22:47;;;;;;;10.85;4.00;;;;;;;20.91;40.22;95587.13;5072686;28;20032;-87
2022/07/20 07:25:13;;;;;;;11.40;4.10;;;;;;;20.93;40.21;95587.59;5073558;28;20498;-86
2022/07/20 07:27:39;;;;;;;23.00;4.15;;;;;;;22.85;40.67;95895.06;5070115;28;20024;-84
2022/07/20 07:30:05;;;;;;;17.75;4.07;;;;;;;21.80;40.75;95722.59;5073096;28;20032;-86
2022/07/20 07:32:31;;;;;;;24.33;4.32;;;;;;;21.76;40.36;95694.66;5071936;28;20601;-86
2022/07/20 07:34:56;;;;;;;16.50;4.38;;;;;;;23.10;40.21;95925.66;5070733;28;20073;-86
2022/07/20 07:37:22;;;;;;;12.35;3.85;;;;;;;21.55;40.01;95663.09;5067598;28;20031;-87
2022/07/20 07:39:48;;;;;;;11.25;4.65;;;;;;;21.28;40.11;95601.63;5072018;28;20491;-87
2022/07/20 07:42:14;;;;;;;16.45;3.85;;;;;;;22.81;39.94;95856.25;5073142;28;20111;-86
2022/07/20 07:44:39;;;;;;;11.80;3.90;;;;;;;22.96;39.42;95866.44;5071983;28;20074;-86
2022/07/20 07:47:05;;;;;;;14.13;3.70;;;;;;;21.89;39.27;95696.31;5060445;28;20032;-86
2022/07/20 07:49:31;;;;;;;12.93;4.28;;;;;;;22.52;39.31;95778.00;5072751;28;20032;-87
2022/07/20 07:51:57;;;;;;;9.25;3.58;;;;;;;23.33;39.00;95861.88;5073029;28;20056;-86
2022/07/20 07:54:23;;;;;;;12.93;3.88;;;;;;;23.62;39.02;95892.56;5072788;28;20052;-86
2022/07/20 07:56:49;;;;;;;16.75;3.78;;;;;;;22.26;39.11;95694.53;5072438;28;20114;-86
2022/07/20 07:59:15;;;;;;;9.70;4.18;;;;;;;21.76;38.78;95602.88;5071961;28;20032;-86
2022/07/20 08:01:40;;;;;;;13.77;4.15;;;;;;;23.63;38.56;95884.13;5071529;28;20041;-86
2022/07/20 08:04:06;;;;;;;15.75;4.50;;;;;;;23.72;38.10;95884.78;5074038;28;20401;-85
2022/07/20 08:06:31;;;;;;;11.10;3.85;;;;;;;23.04;38.23;95797.13;5069578;28;20045;-85
2022/07/20 08:08:57;;;;;;;15.18;4.70;;;;;;;23.20;38.05;95800.75;5069330;28;20102;-86
2022/07/20 08:11:23;;;;;;;21.88;4.13;;;;;;;23.08;38.18;95787.22;5060293;28;20415;-85
2022/07/20 08:13:49;;;;;;;15.18;3.17;;;;;;;23.45;37.66;95831.28;5069104;28;20489;-86
2022/07/20 08:16:14;;;;;;;9.13;3.40;;;;;;;22.74;36.97;95720.03;5068423;28;20066;-86
2022/07/20 08:18:40;;;;;;;9.13;3.05;;;;;;;23.91;37.26;95877.97;5061490;28;20048;-86
2022/07/20 08:21:06;;;;;;;14.82;3.63;;;;;;;23.95;38.04;95849.88;5097733;28;20036;-85
2022/07/20 08:23:31;;;;;;;11.23;3.28;;;;;;;23.97;37.20;95842.19;5069833;28;20028;-86
2022/07/20 08:25:56;;;;;;;6.47;3.25;;;;;;;24.20;36.96;95847.91;5082698;28;20040;-85
2022/07/20 08:28:22;;;;;;;17.48;3.22;;;;;;;24.08;37.31;95834.38;5070690;28;20158;-85
2022/07/20 08:30:51;;;;;;;6.97;2.42;;;;;;;24.18;36.50;95828.50;5072786;28;20490;-86
2022/07/20 08:33:17;;;;;;;8.10;3.03;;;;;;;24.53;35.26;95864.72;5073634;28;20033;-86
2022/07/20 08:35:43;;;;;;;17.13;3.00;;;;;;;24.59;34.52;95859.84;5076230;28;20043;-86
2022/07/20 08:38:09;;;;;;;9.20;2.50;;;;;;;23.42;35.40;95666.88;5067258;28;20463;-86
2022/07/20 08:40:35;;;;;;;6.78;2.38;;;;;;;24.37;34.53;95812.38;5071779;28;20135;-86
2022/07/20 08:43:01;;;;;;;12.18;3.03;;;;;;;24.21;34.09;95774.41;5070163;28;20052;-86
2022/07/20 08:45:28;;;;;;;10.20;3.13;;;;;;;24.69;33.04;95847.72;5070843;28;20040;-86
2022/07/20 08:47:56;;;;;;;16.58;3.53;;;;;;;24.26;35.13;95759.03;5063545;28;20033;-85
2022/07/20 08:50:25;;;;;;;40.65;4.80;;;;;;;24.75;33.63;95832.75;5065967;28;20033;-86
2022/07/20 08:52:50;;;;;;;19.00;3.53;;;;;;;24.09;33.87;95692.34;5065974;28;20064;-86
2022/07/20 08:55:17;;;;;;;14.60;3.28;;;;;;;24.87;34.55;95822.59;5063986;28;20708;-86
2022/07/20 08:57:42;;;;;;;8.60;2.53;;;;;;;24.50;33.62;95743.41;5068196;28;20043;-86
2022/07/20 09:00:09;;;;;;;10.50;2.80;;;;;;;24.62;34.07;95747.97;5070842;28;20045;-86
2022/07/20 09:02:54;;;;;;;7.93;2.55;;;;;;;23.99;33.43;95625.13;5068005;28;20028;-86
2022/07/20 09:05:21;;;;;;;12.85;2.80;;;;;;;24.80;32.51;95767.38;5061447;28;20040;-85
2022/07/20 09:07:49;;;;;;;10.70;2.30;;;;;;;24.09;34.18;95628.13;5063746;28;20032;-86
2022/07/20 09:10:24;;;;;;;9.98;2.53;;;;;;;25.46;33.51;95839.97;5072933;28;20124;-86
2022/07/20 09:12:53;;;;;;;4.30;2.03;;;;;;;24.11;32.35;95625.03;5065425;28;20033;-85
2022/07/20 09:15:26;;;;;;;7.97;2.55;;;;;;;25.50;32.04;95838.91;5072504;28;20044;-86
2022/07/20 09:18:15;;;;;;;7.82;2.40;;;;;;;25.50;32.17;95829.97;5080379;28;20036;-84
2022/07/20 09:20:42;;;;;;;6.55;2.25;;;;;;;25.61;32.98;95839.19;5058279;28;20048;-86
2022/07/20 09:23:13;;;;;;;7.20;2.70;;;;;;;25.68;33.99;95840.16;5063713;28;20548;-85
2022/07/20 09:26:25;;;;;;;13.10;2.45;;;;;;;25.21;32.47;95763.38;5069271;28;20040;-85
2022/07/20 09:28:53;;;;;;;15.60;2.72;;;;;;;25.35;33.23;95767.19;5069831;28;20048;-86
2022/07/20 09:31:34;;;;;;;4.88;2.28;;;;;;;25.93;32.49;95824.41;5071339;28;20445;-86
2022/07/20 09:34:03;;;;;;;8.40;2.65;;;;;;;25.96;31.31;95825.59;5069603;28;20090;-85
2022/07/20 09:36:31;;;;;;;6.80;2.00;;;;;;;25.73;30.97;95790.97;5064773;28;20044;-86
2022/07/20 09:39:12;;;;;;;8.40;2.72;;;;;;;25.24;32.82;95721.97;5058063;28;20446;-86
2022/07/20 09:41:40;;;;;;;6.90;2.05;;;;;;;26.03;31.34;95820.31;5068035;28;20071;-85
2022/07/20 09:44:08;;;;;;;4.00;2.00;;;;;;;25.91;30.65;95815.03;5069863;28;20529;-85
2022/07/20 09:46:35;;;;;;;4.47;1.90;;;;;;;25.57;30.92;95757.59;5078871;28;20486;-86
2022/07/20 09:49:07;;;;;;;10.90;2.60;;;;;;;25.86;31.66;95766.41;5072882;28;20060;-87
2022/07/20 09:51:39;;;;;;;14.25;5.05;;;;;;;25.42;31.44;95665.31;5071184;28;20037;-86
2022/07/20 09:54:10;;;;;;;9.07;2.25;;;;;;;27.11;30.75;95816.56;5050551;28;20044;-87
2022/07/20 09:56:41;;;;;;;9.07;2.10;;;;;;;26.49;28.75;95574.56;5055004;28;20515;-86
2022/07/20 09:59:10;;;;;;;6.63;2.10;;;;;;;28.49;27.64;95701.25;5055189;28;20495;-87
2022/07/20 10:01:42;;;;;;;3.67;1.55;;;;;;;30.06;26.69;95802.34;5053844;28;20115;-86
2022/07/20 10:04:10;;;;;;;7.65;1.92;;;;;;;28.98;24.63;95558.94;5057988;28;20502;-86
2022/07/20 10:06:37;;;;;;;3.45;1.90;;;;;;;31.31;24.91;95789.75;5064903;28;20041;-87
2022/07/20 10:09:05;;;;;;;5.13;1.85;;;;;;;32.18;23.64;95790.81;5089160;28;20043;-87
2022/07/20 10:11:30;;;;;;;10.63;1.90;;;;;;;32.69;21.96;95739.97;5064695;28;20082;-87
2022/07/20 10:13:58;;;;;;;2.88;1.95;;;;;;;33.50;22.25;95774.28;5073119;28;20045;-87
2022/07/20 10:16:50;;;;;;;4.45;1.73;;;;;;;33.93;21.41;95730.66;5074171;28;20047;-86
2022/07/20 10:19:16;;;;;;;7.93;2.30;;;;;;;34.23;20.20;95746.44;5073727;28;20175;-87
2022/07/20 10:21:42;;;;;;;6.63;1.73;;;;;;;34.61;20.42;95755.34;5073266;28;20056;-86
2022/07/20 10:24:25;;;;;;;6.05;1.80;;;;;;;34.51;20.12;95775.56;5072994;28;20028;-86
2022/07/20 10:27:24;;;;;;;5.07;1.90;;;;;;;34.83;19.65;95767.66;5067541;28;20039;-86
2022/07/20 10:29:56;;;;;;;5.97;1.83;;;;;;;34.92;18.98;95702.97;5082713;28;20477;-87
2022/07/20 10:32:28;;;;;;;4.63;1.70;;;;;;;34.20;18.70;95556.50;5071031;28;20031;-87
2022/07/20 10:34:56;;;;;;;4.15;1.48;;;;;;;33.48;19.10;95424.75;5072564;28;20082;-87
2022/07/20 10:37:31;;;;;;;7.93;1.85;;;;;;;36.03;18.03;95760.50;5063403;28;20041;-87
2022/07/20 10:40:04;;;;;;;8.05;1.42;;;;;;;36.05;17.99;95720.25;5073539;28;20066;-86
2022/07/20 10:42:48;;;;;;;3.85;2.00;;;;;;;36.00;18.08;95700.66;5072596;28;20028;-87
2022/07/20 10:45:16;;;;;;;10.13;2.78;;;;;;;35.82;17.88;95745.94;5068416;28;20028;-86
2022/07/20 10:47:44;;;;;;;8.55;2.13;;;;;;;35.50;18.55;95742.97;5072691;28;20032;-84
2022/07/20 10:50:36;;;;;;;7.90;2.60;;;;;;;35.06;18.67;95686.19;5071784;28;20059;-83
2022/07/20 10:53:10;;;;;;;3.90;1.90;;;;;;;35.77;18.59;95737.38;5073501;28;20068;-86
2022/07/20 10:55:36;;;;;;;4.40;1.90;;;;;;;35.72;19.90;95740.59;5079212;28;20062;-86
2022/07/20 10:58:06;;;;;;;5.53;1.70;;;;;;;34.16;19.34;95518.06;5063595;28;20098;-84
2022/07/20 11:00:36;;;;;;;4.07;1.83;;;;;;;35.69;18.50;95698.09;5063204;28;20036;-86
2022/07/20 11:03:04;;;;;;;7.35;1.65;;;;;;;35.55;18.85;95682.56;5062396;28;20817;-85
2022/07/20 11:05:29;;;;;;;13.65;2.17;;;;;;;35.91;18.98;95701.22;5073226;28;20434;-86
2022/07/20 11:07:55;;;;;;;6.88;1.90;;;;;;;36.08;18.61;95663.41;5069456;28;20032;-86
2022/07/20 11:10:23;;;;;;;6.28;2.00;;;;;;;36.51;18.22;95702.72;5076689;28;20037;-86
2022/07/20 11:12:59;;;;;;;3.72;1.60;;;;;;;36.12;17.61;95709.06;5092814;28;20043;-87
2022/07/20 11:15:45;;;;;;;10.30;1.90;;;;;;;35.01;18.78;95463.47;5091645;28;20493;-86
2022/07/20 11:18:13;;;;;;;8.73;2.05;;;;;;;36.35;18.52;95702.69;5088535;28;20037;-87
2022/07/20 11:20:50;;;;;;;7.78;1.90;;;;;;;36.08;18.34;95683.53;5073121;28;20032;-86
2022/07/20 11:23:17;;;;;;;4.95;1.92;;;;;;;36.35;17.47;95711.75;5078032;28;20140;-85
2022/07/20 11:25:58;;;;;;;8.02;2.10;;;;;;;36.03;17.51;95641.81;5060529;28;20426;-87
2022/07/20 11:28:32;;;;;;;5.45;1.98;;;;;;;36.44;17.41;95668.94;5073749;28;20491;-86
2022/07/20 11:30:59;;;;;;;6.13;2.35;;;;;;;36.14;18.41;95600.97;5071435;28;20474;-85
2022/07/20 11:33:29;;;;;;;8.18;2.20;;;;;;;36.82;18.71;95702.44;5072760;28;20028;-86